sensor_id;sensor_type;location;lat;lon;timestamp;P1;durP1;ratioP1;P2;durP2;ratioP2
55090;SDS011;40985;53.180;5.800;2022-09-12T00:01:56;14.07;;;12.95;;
55090;SDS011;40985;53.180;5.800;2022-09-12T00:04:21;16.90;;;15.40;;
55090;SDS011;40985;53.180;5.800;2022-09-12T00:06:47;12.95;;;11.85;;
55090;SDS011;40985;53.180;5.800;2022-09-12T00:09:13;8.13;;;7.38;;
55090;SDS011;40985;53.180;5.800;2022-09-12T00:11:41;9.57;;;8.88;;
55090;SDS011;40985;53.180;5.800;2022-09-12T00:14:09;9.88;;;9.07;;
55090;SDS011;40985;53.180;5.800;2022-09-12T00:16:36;12.10;;;11.13;;
55090;SDS011;40985;53.180;5.800;2022-09-12T00:19:03;13.25;;;12.10;;
55090;SDS011;40985;53.180;5.800;2022-09-12T00:21:31;12.45;;;11.45;;
55090;SDS011;40985;53.180;5.800;2022-09-12T00:23:57;16.15;;;14.77;;
55090;SDS011;40985;53.180;5.800;2022-09-12T00:26:23;16.42;;;15.02;;
55090;SDS011;40985;53.180;5.800;2022-09-12T00:28:49;12.88;;;11.82;;
55090;SDS011;40985;53.180;5.800;2022-09-12T00:31:16;12.30;;;11.30;;
55090;SDS011;40985;53.180;5.800;2022-09-12T00:33:46;15.73;;;14.02;;
55090;SDS011;40985;53.180;5.800;2022-09-12T00:36:15;12.23;;;11.27;;
55090;SDS011;40985;53.180;5.800;2022-09-12T00:38:43;13.25;;;12.15;;
55090;SDS011;40985;53.180;5.800;2022-09-12T00:41:20;16.95;;;15.38;;
55090;SDS011;40985;53.180;5.800;2022-09-12T00:43:48;12.93;;;11.98;;
55090;SDS011;40985;53.180;5.800;2022-09-12T00:49:02;20.83;;;17.63;;
55090;SDS011;40985;53.180;5.800;2022-09-12T00:51:38;19.55;;;17.85;;
55090;SDS011;40985;53.180;5.800;2022-09-12T00:54:07;17.50;;;15.90;;
55090;SDS011;40985;53.180;5.800;2022-09-12T00:56:36;19.77;;;17.85;;
55090;SDS011;40985;53.180;5.800;2022-09-12T00:59:06;17.55;;;16.05;;
55090;SDS011;40985;53.180;5.800;2022-09-12T01:01:39;18.52;;;16.83;;
55090;SDS011;40985;53.180;5.800;2022-09-12T01:04:06;17.58;;;16.17;;
55090;SDS011;40985;53.180;5.800;2022-09-12T01:06:35;16.42;;;14.95;;
55090;SDS011;40985;53.180;5.800;2022-09-12T01:09:04;17.65;;;15.98;;
55090;SDS011;40985;53.180;5.800;2022-09-12T01:11:33;18.10;;;16.42;;
55090;SDS011;40985;53.180;5.800;2022-09-12T01:14:01;19.17;;;17.58;;
55090;SDS011;40985;53.180;5.800;2022-09-12T01:16:26;18.15;;;16.70;;
55090;SDS011;40985;53.180;5.800;2022-09-12T01:30:14;16.52;;;15.20;;
55090;SDS011;40985;53.180;5.800;2022-09-12T01:35:24;16.75;;;15.27;;
55090;SDS011;40985;53.180;5.800;2022-09-12T01:40:41;17.63;;;16.05;;
55090;SDS011;40985;53.180;5.800;2022-09-12T01:48:29;12.95;;;11.95;;
55090;SDS011;40985;53.180;5.800;2022-09-12T01:51:03;12.55;;;11.70;;
55090;SDS011;40985;53.180;5.800;2022-09-12T01:53:48;13.27;;;12.35;;
55090;SDS011;40985;53.180;5.800;2022-09-12T01:56:26;12.97;;;11.97;;
55090;SDS011;40985;53.180;5.800;2022-09-12T01:59:04;12.82;;;11.85;;
55090;SDS011;40985;53.180;5.800;2022-09-12T02:01:41;11.20;;;10.25;;
55090;SDS011;40985;53.180;5.800;2022-09-12T02:04:16;11.02;;;10.13;;
55090;SDS011;40985;53.180;5.800;2022-09-12T02:09:25;12.25;;;11.35;;
55090;SDS011;40985;53.180;5.800;2022-09-12T02:12:11;11.93;;;11.02;;
55090;SDS011;40985;53.180;5.800;2022-09-12T02:14:45;12.00;;;11.20;;
55090;SDS011;40985;53.180;5.800;2022-09-12T02:17:21;12.30;;;11.32;;
55090;SDS011;40985;53.180;5.800;2022-09-12T02:19:53;13.07;;;12.05;;
55090;SDS011;40985;53.180;5.800;2022-09-12T02:22:24;13.73;;;12.63;;
55090;SDS011;40985;53.180;5.800;2022-09-12T02:24:54;14.52;;;13.25;;
55090;SDS011;40985;53.180;5.800;2022-09-12T02:27:24;14.38;;;13.30;;
55090;SDS011;40985;53.180;5.800;2022-09-12T02:29:54;15.50;;;14.23;;
55090;SDS011;40985;53.180;5.800;2022-09-12T02:32:31;17.33;;;15.93;;
55090;SDS011;40985;53.180;5.800;2022-09-12T02:35:22;17.08;;;15.60;;
55090;SDS011;40985;53.180;5.800;2022-09-12T02:40:24;13.55;;;12.45;;
55090;SDS011;40985;53.180;5.800;2022-09-12T02:42:49;16.33;;;14.95;;
55090;SDS011;40985;53.180;5.800;2022-09-12T02:45:16;17.08;;;15.52;;
55090;SDS011;40985;53.180;5.800;2022-09-12T02:47:43;16.08;;;14.25;;
55090;SDS011;40985;53.180;5.800;2022-09-12T02:50:20;14.65;;;13.15;;
55090;SDS011;40985;53.180;5.800;2022-09-12T02:52:46;15.85;;;14.55;;
55090;SDS011;40985;53.180;5.800;2022-09-12T02:55:12;16.65;;;15.10;;
55090;SDS011;40985;53.180;5.800;2022-09-12T02:57:38;16.60;;;14.98;;
55090;SDS011;40985;53.180;5.800;2022-09-12T03:00:05;16.50;;;14.48;;
55090;SDS011;40985;53.180;5.800;2022-09-12T03:15:50;18.33;;;16.60;;
55090;SDS011;40985;53.180;5.800;2022-09-12T03:18:41;17.27;;;15.60;;
55090;SDS011;40985;53.180;5.800;2022-09-12T03:21:13;17.20;;;15.63;;
55090;SDS011;40985;53.180;5.800;2022-09-12T03:23:54;17.42;;;15.73;;
55090;SDS011;40985;53.180;5.800;2022-09-12T03:26:27;16.13;;;14.63;;
55090;SDS011;40985;53.180;5.800;2022-09-12T03:28:58;15.32;;;13.93;;
55090;SDS011;40985;53.180;5.800;2022-09-12T03:31:26;16.65;;;15.00;;
55090;SDS011;40985;53.180;5.800;2022-09-12T03:33:52;18.92;;;16.83;;
55090;SDS011;40985;53.180;5.800;2022-09-12T03:36:21;16.42;;;14.93;;
55090;SDS011;40985;53.180;5.800;2022-09-12T03:38:49;17.33;;;15.70;;
55090;SDS011;40985;53.180;5.800;2022-09-12T03:41:15;17.77;;;14.95;;
55090;SDS011;40985;53.180;5.800;2022-09-12T03:43:41;17.98;;;16.38;;
55090;SDS011;40985;53.180;5.800;2022-09-12T03:46:07;19.02;;;17.02;;
55090;SDS011;40985;53.180;5.800;2022-09-12T03:48:32;21.73;;;17.13;;
55090;SDS011;40985;53.180;5.800;2022-09-12T03:51:02;18.40;;;16.60;;
55090;SDS011;40985;53.180;5.800;2022-09-12T03:53:29;20.75;;;17.88;;
55090;SDS011;40985;53.180;5.800;2022-09-12T03:55:55;19.95;;;17.85;;
55090;SDS011;40985;53.180;5.800;2022-09-12T03:58:21;22.95;;;19.45;;
55090;SDS011;40985;53.180;5.800;2022-09-12T04:00:47;21.98;;;19.67;;
55090;SDS011;40985;53.180;5.800;2022-09-12T04:03:13;22.80;;;19.40;;
55090;SDS011;40985;53.180;5.800;2022-09-12T04:05:39;22.50;;;20.10;;
55090;SDS011;40985;53.180;5.800;2022-09-12T04:08:05;23.15;;;19.45;;
55090;SDS011;40985;53.180;5.800;2022-09-12T04:10:30;22.35;;;18.65;;
55090;SDS011;40985;53.180;5.800;2022-09-12T04:12:56;21.10;;;18.98;;
55090;SDS011;40985;53.180;5.800;2022-09-12T04:15:22;23.65;;;21.13;;
55090;SDS011;40985;53.180;5.800;2022-09-12T04:17:48;25.73;;;22.88;;
55090;SDS011;40985;53.180;5.800;2022-09-12T04:20:14;27.42;;;24.20;;
55090;SDS011;40985;53.180;5.800;2022-09-12T04:22:39;27.20;;;22.75;;
55090;SDS011;40985;53.180;5.800;2022-09-12T04:25:05;25.70;;;22.58;;
55090;SDS011;40985;53.180;5.800;2022-09-12T04:27:31;25.60;;;22.80;;
55090;SDS011;40985;53.180;5.800;2022-09-12T04:29:57;26.67;;;22.70;;
55090;SDS011;40985;53.180;5.800;2022-09-12T04:32:24;27.20;;;23.35;;
55090;SDS011;40985;53.180;5.800;2022-09-12T04:34:50;25.80;;;22.98;;
55090;SDS011;40985;53.180;5.800;2022-09-12T04:37:16;29.63;;;24.05;;
55090;SDS011;40985;53.180;5.800;2022-09-12T04:39:43;29.58;;;24.60;;
55090;SDS011;40985;53.180;5.800;2022-09-12T04:42:08;27.65;;;24.17;;
55090;SDS011;40985;53.180;5.800;2022-09-12T04:44:34;28.92;;;25.23;;
55090;SDS011;40985;53.180;5.800;2022-09-12T04:46:59;26.58;;;23.75;;
55090;SDS011;40985;53.180;5.800;2022-09-12T04:49:25;28.90;;;24.73;;
55090;SDS011;40985;53.180;5.800;2022-09-12T04:51:52;34.20;;;27.52;;
55090;SDS011;40985;53.180;5.800;2022-09-12T04:54:19;31.63;;;26.55;;
55090;SDS011;40985;53.180;5.800;2022-09-12T04:56:46;33.38;;;27.85;;
55090;SDS011;40985;53.180;5.800;2022-09-12T04:59:13;32.85;;;27.02;;
55090;SDS011;40985;53.180;5.800;2022-09-12T05:01:40;34.17;;;27.85;;
55090;SDS011;40985;53.180;5.800;2022-09-12T05:04:06;38.17;;;28.65;;
55090;SDS011;40985;53.180;5.800;2022-09-12T05:06:34;40.15;;;30.17;;
55090;SDS011;40985;53.180;5.800;2022-09-12T05:09:01;38.90;;;30.35;;
55090;SDS011;40985;53.180;5.800;2022-09-12T05:11:30;33.80;;;27.58;;
55090;SDS011;40985;53.180;5.800;2022-09-12T05:13:59;34.30;;;28.83;;
55090;SDS011;40985;53.180;5.800;2022-09-12T05:16:25;34.72;;;28.67;;
55090;SDS011;40985;53.180;5.800;2022-09-12T05:18:52;36.78;;;29.13;;
55090;SDS011;40985;53.180;5.800;2022-09-12T05:21:19;36.25;;;28.33;;
55090;SDS011;40985;53.180;5.800;2022-09-12T05:23:55;33.30;;;28.35;;
55090;SDS011;40985;53.180;5.800;2022-09-12T05:26:22;33.30;;;28.67;;
55090;SDS011;40985;53.180;5.800;2022-09-12T05:28:48;33.83;;;29.02;;
55090;SDS011;40985;53.180;5.800;2022-09-12T05:31:22;35.50;;;28.35;;
55090;SDS011;40985;53.180;5.800;2022-09-12T05:33:50;31.88;;;27.77;;
55090;SDS011;40985;53.180;5.800;2022-09-12T05:36:24;33.00;;;27.52;;
55090;SDS011;40985;53.180;5.800;2022-09-12T05:38:52;34.97;;;28.40;;
55090;SDS011;40985;53.180;5.800;2022-09-12T05:41:19;30.88;;;27.02;;
55090;SDS011;40985;53.180;5.800;2022-09-12T05:43:46;31.13;;;25.67;;
55090;SDS011;40985;53.180;5.800;2022-09-12T05:46:16;31.35;;;26.90;;
55090;SDS011;40985;53.180;5.800;2022-09-12T05:48:44;32.00;;;26.98;;
55090;SDS011;40985;53.180;5.800;2022-09-12T05:51:18;32.47;;;27.23;;
55090;SDS011;40985;53.180;5.800;2022-09-12T05:53:53;31.88;;;27.58;;
55090;SDS011;40985;53.180;5.800;2022-09-12T05:56:21;31.30;;;25.98;;
55090;SDS011;40985;53.180;5.800;2022-09-12T05:58:53;32.40;;;25.92;;
55090;SDS011;40985;53.180;5.800;2022-09-12T06:01:21;31.13;;;26.42;;
55090;SDS011;40985;53.180;5.800;2022-09-12T06:03:51;29.02;;;25.80;;
55090;SDS011;40985;53.180;5.800;2022-09-12T06:06:19;30.17;;;26.15;;
55090;SDS011;40985;53.180;5.800;2022-09-12T06:08:48;31.95;;;26.08;;
55090;SDS011;40985;53.180;5.800;2022-09-12T06:11:19;34.60;;;27.13;;
55090;SDS011;40985;53.180;5.800;2022-09-12T06:13:47;29.08;;;25.73;;
55090;SDS011;40985;53.180;5.800;2022-09-12T06:18:48;29.80;;;25.67;;
55090;SDS011;40985;53.180;5.800;2022-09-12T06:21:16;29.17;;;25.05;;
55090;SDS011;40985;53.180;5.800;2022-09-12T06:23:42;26.48;;;23.77;;
55090;SDS011;40985;53.180;5.800;2022-09-12T06:26:10;29.20;;;25.10;;
55090;SDS011;40985;53.180;5.800;2022-09-12T06:28:37;27.67;;;23.45;;
55090;SDS011;40985;53.180;5.800;2022-09-12T06:31:05;34.88;;;26.27;;
55090;SDS011;40985;53.180;5.800;2022-09-12T06:33:37;32.92;;;25.63;;
55090;SDS011;40985;53.180;5.800;2022-09-12T06:36:14;26.13;;;23.40;;
55090;SDS011;40985;53.180;5.800;2022-09-12T06:38:45;28.05;;;24.63;;
55090;SDS011;40985;53.180;5.800;2022-09-12T06:41:12;27.55;;;24.17;;
55090;SDS011;40985;53.180;5.800;2022-09-12T06:43:39;27.48;;;23.70;;
55090;SDS011;40985;53.180;5.800;2022-09-12T06:46:06;28.10;;;24.10;;
55090;SDS011;40985;53.180;5.800;2022-09-12T06:48:33;26.33;;;23.55;;
55090;SDS011;40985;53.180;5.800;2022-09-12T06:51:00;27.80;;;24.05;;
55090;SDS011;40985;53.180;5.800;2022-09-12T06:53:28;26.23;;;23.27;;
55090;SDS011;40985;53.180;5.800;2022-09-12T06:55:58;26.48;;;23.58;;
55090;SDS011;40985;53.180;5.800;2022-09-12T06:58:25;26.65;;;23.77;;
55090;SDS011;40985;53.180;5.800;2022-09-12T07:00:52;25.90;;;23.23;;
55090;SDS011;40985;53.180;5.800;2022-09-12T07:05:50;25.88;;;21.98;;
55090;SDS011;40985;53.180;5.800;2022-09-12T07:08:16;28.70;;;24.58;;
55090;SDS011;40985;53.180;5.800;2022-09-12T07:10:42;30.27;;;25.67;;
55090;SDS011;40985;53.180;5.800;2022-09-12T07:13:07;28.70;;;23.52;;
55090;SDS011;40985;53.180;5.800;2022-09-12T07:15:33;30.10;;;25.60;;
55090;SDS011;40985;53.180;5.800;2022-09-12T07:18:00;29.52;;;24.67;;
55090;SDS011;40985;53.180;5.800;2022-09-12T07:20:26;29.92;;;24.80;;
55090;SDS011;40985;53.180;5.800;2022-09-12T07:22:52;30.35;;;25.58;;
55090;SDS011;40985;53.180;5.800;2022-09-12T07:25:17;26.33;;;22.92;;
55090;SDS011;40985;53.180;5.800;2022-09-12T07:27:43;30.30;;;25.92;;
55090;SDS011;40985;53.180;5.800;2022-09-12T07:30:08;30.67;;;25.92;;
55090;SDS011;40985;53.180;5.800;2022-09-12T07:32:34;30.27;;;25.50;;
55090;SDS011;40985;53.180;5.800;2022-09-12T07:35:00;32.75;;;27.10;;
55090;SDS011;40985;53.180;5.800;2022-09-12T07:37:28;31.25;;;27.48;;
55090;SDS011;40985;53.180;5.800;2022-09-12T07:39:55;35.05;;;27.77;;
55090;SDS011;40985;53.180;5.800;2022-09-12T07:42:21;37.15;;;30.10;;
55090;SDS011;40985;53.180;5.800;2022-09-12T07:44:47;41.28;;;30.50;;
55090;SDS011;40985;53.180;5.800;2022-09-12T07:47:14;34.33;;;28.42;;
55090;SDS011;40985;53.180;5.800;2022-09-12T07:49:39;38.38;;;29.60;;
55090;SDS011;40985;53.180;5.800;2022-09-12T07:52:05;37.38;;;30.02;;
55090;SDS011;40985;53.180;5.800;2022-09-12T07:54:31;35.33;;;30.52;;
55090;SDS011;40985;53.180;5.800;2022-09-12T07:56:57;37.92;;;30.30;;
55090;SDS011;40985;53.180;5.800;2022-09-12T07:59:23;38.88;;;31.70;;
55090;SDS011;40985;53.180;5.800;2022-09-12T08:01:48;35.63;;;30.25;;
55090;SDS011;40985;53.180;5.800;2022-09-12T08:04:14;38.55;;;30.20;;
55090;SDS011;40985;53.180;5.800;2022-09-12T08:06:40;37.20;;;28.98;;
55090;SDS011;40985;53.180;5.800;2022-09-12T08:09:05;36.00;;;28.95;;
55090;SDS011;40985;53.180;5.800;2022-09-12T08:11:32;35.90;;;28.27;;
55090;SDS011;40985;53.180;5.800;2022-09-12T08:13:58;37.00;;;30.92;;
55090;SDS011;40985;53.180;5.800;2022-09-12T08:16:26;37.35;;;29.85;;
55090;SDS011;40985;53.180;5.800;2022-09-12T08:18:55;37.85;;;30.92;;
55090;SDS011;40985;53.180;5.800;2022-09-12T08:21:30;34.70;;;28.83;;
55090;SDS011;40985;53.180;5.800;2022-09-12T08:23:58;40.67;;;30.33;;
55090;SDS011;40985;53.180;5.800;2022-09-12T08:26:25;35.58;;;28.73;;
55090;SDS011;40985;53.180;5.800;2022-09-12T08:28:51;35.88;;;29.42;;
55090;SDS011;40985;53.180;5.800;2022-09-12T08:31:19;37.00;;;28.80;;
55090;SDS011;40985;53.180;5.800;2022-09-12T08:33:46;34.22;;;28.30;;
55090;SDS011;40985;53.180;5.800;2022-09-12T08:36:18;32.85;;;26.67;;
55090;SDS011;40985;53.180;5.800;2022-09-12T08:38:46;32.15;;;27.02;;
55090;SDS011;40985;53.180;5.800;2022-09-12T08:44:02;37.60;;;28.83;;
55090;SDS011;40985;53.180;5.800;2022-09-12T08:49:33;44.05;;;32.55;;
55090;SDS011;40985;53.180;5.800;2022-09-12T08:52:01;41.10;;;34.45;;
55090;SDS011;40985;53.180;5.800;2022-09-12T08:54:36;45.15;;;33.47;;
55090;SDS011;40985;53.180;5.800;2022-09-12T08:57:04;44.53;;;35.33;;
55090;SDS011;40985;53.180;5.800;2022-09-12T08:59:37;45.45;;;36.00;;
55090;SDS011;40985;53.180;5.800;2022-09-12T09:04:55;49.25;;;38.13;;
55090;SDS011;40985;53.180;5.800;2022-09-12T09:18:40;44.70;;;35.30;;
55090;SDS011;40985;53.180;5.800;2022-09-12T09:21:10;42.42;;;33.45;;
55090;SDS011;40985;53.180;5.800;2022-09-12T09:24:09;42.60;;;30.35;;
55090;SDS011;40985;53.180;5.800;2022-09-12T09:29:17;35.75;;;28.60;;
55090;SDS011;40985;53.180;5.800;2022-09-12T09:31:46;41.58;;;30.83;;
55090;SDS011;40985;53.180;5.800;2022-09-12T09:34:29;35.10;;;27.23;;
55090;SDS011;40985;53.180;5.800;2022-09-12T09:37:01;32.80;;;24.15;;
55090;SDS011;40985;53.180;5.800;2022-09-12T09:42:26;27.75;;;21.67;;
55090;SDS011;40985;53.180;5.800;2022-09-12T09:45:18;25.02;;;19.90;;
55090;SDS011;40985;53.180;5.800;2022-09-12T09:47:48;26.65;;;20.88;;
55090;SDS011;40985;53.180;5.800;2022-09-12T09:50:38;22.67;;;16.92;;
55090;SDS011;40985;53.180;5.800;2022-09-12T09:53:04;20.98;;;16.80;;
55090;SDS011;40985;53.180;5.800;2022-09-12T09:55:43;21.48;;;16.55;;
55090;SDS011;40985;53.180;5.800;2022-09-12T09:58:10;21.13;;;16.25;;
55090;SDS011;40985;53.180;5.800;2022-09-12T10:00:36;21.02;;;17.30;;
55090;SDS011;40985;53.180;5.800;2022-09-12T10:05:35;21.13;;;18.15;;
55090;SDS011;40985;53.180;5.800;2022-09-12T10:08:10;20.02;;;16.67;;
55090;SDS011;40985;53.180;5.800;2022-09-12T10:10:52;22.65;;;15.80;;
55090;SDS011;40985;53.180;5.800;2022-09-12T10:13:22;20.17;;;16.65;;
55090;SDS011;40985;53.180;5.800;2022-09-12T10:18:42;21.83;;;17.15;;
55090;SDS011;40985;53.180;5.800;2022-09-12T10:21:11;18.30;;;15.60;;
55090;SDS011;40985;53.180;5.800;2022-09-12T10:23:49;19.02;;;15.63;;
55090;SDS011;40985;53.180;5.800;2022-09-12T10:26:18;17.77;;;14.98;;
55090;SDS011;40985;53.180;5.800;2022-09-12T10:28:47;20.88;;;16.92;;
55090;SDS011;40985;53.180;5.800;2022-09-12T10:31:22;19.30;;;16.77;;
55090;SDS011;40985;53.180;5.800;2022-09-12T10:33:58;22.38;;;17.05;;
55090;SDS011;40985;53.180;5.800;2022-09-12T10:36:25;20.65;;;15.52;;
55090;SDS011;40985;53.180;5.800;2022-09-12T10:39:00;20.73;;;16.60;;
55090;SDS011;40985;53.180;5.800;2022-09-12T10:41:33;21.15;;;14.27;;
55090;SDS011;40985;53.180;5.800;2022-09-12T10:44:05;17.40;;;15.50;;
55090;SDS011;40985;53.180;5.800;2022-09-12T10:46:37;14.43;;;12.25;;
55090;SDS011;40985;53.180;5.800;2022-09-12T10:49:18;15.32;;;12.82;;
55090;SDS011;40985;53.180;5.800;2022-09-12T10:51:48;10.20;;;8.68;;
55090;SDS011;40985;53.180;5.800;2022-09-12T10:54:15;9.82;;;8.20;;
55090;SDS011;40985;53.180;5.800;2022-09-12T11:01:44;10.98;;;9.13;;
55090;SDS011;40985;53.180;5.800;2022-09-12T11:10:14;12.10;;;9.27;;
55090;SDS011;40985;53.180;5.800;2022-09-12T11:13:19;9.98;;;8.55;;
55090;SDS011;40985;53.180;5.800;2022-09-12T11:16:13;10.43;;;8.00;;
55090;SDS011;40985;53.180;5.800;2022-09-12T11:29:58;6.18;;;5.57;;
55090;SDS011;40985;53.180;5.800;2022-09-12T11:35:17;5.88;;;5.28;;
55090;SDS011;40985;53.180;5.800;2022-09-12T11:40:53;6.97;;;6.38;;
55090;SDS011;40985;53.180;5.800;2022-09-12T11:46:12;7.32;;;6.53;;
55090;SDS011;40985;53.180;5.800;2022-09-12T11:48:50;8.20;;;6.85;;
55090;SDS011;40985;53.180;5.800;2022-09-12T11:51:43;6.70;;;6.10;;
55090;SDS011;40985;53.180;5.800;2022-09-12T12:02:47;4.63;;;4.22;;
55090;SDS011;40985;53.180;5.800;2022-09-12T12:05:23;5.47;;;4.47;;
55090;SDS011;40985;53.180;5.800;2022-09-12T12:08:06;3.90;;;3.60;;
55090;SDS011;40985;53.180;5.800;2022-09-12T12:10:40;5.10;;;4.38;;
55090;SDS011;40985;53.180;5.800;2022-09-12T12:13:28;7.75;;;6.53;;
55090;SDS011;40985;53.180;5.800;2022-09-12T12:16:27;7.55;;;6.55;;
55090;SDS011;40985;53.180;5.800;2022-09-12T12:21:42;6.95;;;6.30;;
55090;SDS011;40985;53.180;5.800;2022-09-12T12:34:35;9.10;;;7.65;;
55090;SDS011;40985;53.180;5.800;2022-09-12T12:37:49;8.85;;;7.95;;
55090;SDS011;40985;53.180;5.800;2022-09-12T12:40:20;10.82;;;6.88;;
55090;SDS011;40985;53.180;5.800;2022-09-12T12:47:43;10.55;;;7.63;;
55090;SDS011;40985;53.180;5.800;2022-09-12T12:52:57;4.55;;;2.85;;
55090;SDS011;40985;53.180;5.800;2022-09-12T12:55:31;4.72;;;2.60;;
55090;SDS011;40985;53.180;5.800;2022-09-12T13:01:10;6.78;;;5.03;;
55090;SDS011;40985;53.180;5.800;2022-09-12T13:03:42;4.32;;;3.92;;
55090;SDS011;40985;53.180;5.800;2022-09-12T13:06:28;3.63;;;2.95;;
55090;SDS011;40985;53.180;5.800;2022-09-12T13:08:57;2.95;;;2.75;;
55090;SDS011;40985;53.180;5.800;2022-09-12T13:11:45;4.00;;;3.70;;
55090;SDS011;40985;53.180;5.800;2022-09-12T13:17:12;5.65;;;4.10;;
55090;SDS011;40985;53.180;5.800;2022-09-12T13:19:46;3.22;;;2.40;;
55090;SDS011;40985;53.180;5.800;2022-09-12T13:22:13;3.90;;;2.05;;
55090;SDS011;40985;53.180;5.800;2022-09-12T13:24:43;1.60;;;1.50;;
55090;SDS011;40985;53.180;5.800;2022-09-12T13:27:18;2.45;;;2.33;;
55090;SDS011;40985;53.180;5.800;2022-09-12T13:32:56;4.35;;;3.25;;
55090;SDS011;40985;53.180;5.800;2022-09-12T13:35:44;4.95;;;4.65;;
55090;SDS011;40985;53.180;5.800;2022-09-12T13:41:13;7.47;;;3.70;;
55090;SDS011;40985;53.180;5.800;2022-09-12T13:43:51;6.13;;;5.60;;
55090;SDS011;40985;53.180;5.800;2022-09-12T13:46:19;5.95;;;5.38;;
55090;SDS011;40985;53.180;5.800;2022-09-12T13:48:52;5.78;;;5.20;;
55090;SDS011;40985;53.180;5.800;2022-09-12T13:51:25;5.68;;;4.93;;
55090;SDS011;40985;53.180;5.800;2022-09-12T13:53:55;7.22;;;6.72;;
55090;SDS011;40985;53.180;5.800;2022-09-12T13:56:26;7.63;;;6.75;;
55090;SDS011;40985;53.180;5.800;2022-09-12T14:01:38;8.80;;;7.97;;
55090;SDS011;40985;53.180;5.800;2022-09-12T14:04:15;8.45;;;7.32;;
55090;SDS011;40985;53.180;5.800;2022-09-12T14:07:12;8.02;;;7.18;;
55090;SDS011;40985;53.180;5.800;2022-09-12T14:09:42;11.57;;;7.28;;
55090;SDS011;40985;53.180;5.800;2022-09-12T14:15:00;7.40;;;6.70;;
55090;SDS011;40985;53.180;5.800;2022-09-12T14:17:27;7.55;;;6.90;;
55090;SDS011;40985;53.180;5.800;2022-09-12T14:19:56;6.43;;;5.93;;
55090;SDS011;40985;53.180;5.800;2022-09-12T14:22:27;8.18;;;7.47;;
55090;SDS011;40985;53.180;5.800;2022-09-12T14:24:54;8.05;;;7.35;;
55090;SDS011;40985;53.180;5.800;2022-09-12T14:27:23;8.80;;;7.00;;
55090;SDS011;40985;53.180;5.800;2022-09-12T14:29:55;7.03;;;6.28;;
55090;SDS011;40985;53.180;5.800;2022-09-12T14:32:39;6.45;;;5.90;;
55090;SDS011;40985;53.180;5.800;2022-09-12T14:35:12;7.75;;;6.78;;
55090;SDS011;40985;53.180;5.800;2022-09-12T14:37:43;7.80;;;7.10;;
55090;SDS011;40985;53.180;5.800;2022-09-12T14:40:18;8.23;;;7.03;;
55090;SDS011;40985;53.180;5.800;2022-09-12T14:42:46;10.23;;;7.03;;
55090;SDS011;40985;53.180;5.800;2022-09-12T14:47:49;7.13;;;6.38;;
55090;SDS011;40985;53.180;5.800;2022-09-12T14:50:26;8.27;;;7.47;;
55090;SDS011;40985;53.180;5.800;2022-09-12T14:53:06;7.53;;;6.60;;
55090;SDS011;40985;53.180;5.800;2022-09-12T14:55:48;7.18;;;6.47;;
55090;SDS011;40985;53.180;5.800;2022-09-12T15:03:35;6.55;;;5.90;;
55090;SDS011;40985;53.180;5.800;2022-09-12T15:08:50;8.55;;;6.85;;
55090;SDS011;40985;53.180;5.800;2022-09-12T15:11:17;7.03;;;6.45;;
55090;SDS011;40985;53.180;5.800;2022-09-12T15:13:43;7.75;;;7.05;;
55090;SDS011;40985;53.180;5.800;2022-09-12T15:16:09;8.52;;;7.72;;
55090;SDS011;40985;53.180;5.800;2022-09-12T15:18:35;7.10;;;6.40;;
55090;SDS011;40985;53.180;5.800;2022-09-12T15:21:02;6.90;;;6.30;;
55090;SDS011;40985;53.180;5.800;2022-09-12T15:26:02;7.55;;;6.93;;
55090;SDS011;40985;53.180;5.800;2022-09-12T15:28:29;9.15;;;7.07;;
55090;SDS011;40985;53.180;5.800;2022-09-12T15:30:56;6.22;;;5.72;;
55090;SDS011;40985;53.180;5.800;2022-09-12T15:33:24;5.90;;;5.40;;
55090;SDS011;40985;53.180;5.800;2022-09-12T15:35:50;8.45;;;6.70;;
55090;SDS011;40985;53.180;5.800;2022-09-12T15:38:16;6.63;;;6.13;;
55090;SDS011;40985;53.180;5.800;2022-09-12T15:40:43;7.07;;;6.38;;
55090;SDS011;40985;53.180;5.800;2022-09-12T15:43:11;7.43;;;6.10;;
55090;SDS011;40985;53.180;5.800;2022-09-12T15:45:37;6.75;;;6.15;;
55090;SDS011;40985;53.180;5.800;2022-09-12T15:48:06;8.00;;;6.32;;
55090;SDS011;40985;53.180;5.800;2022-09-12T15:50:32;6.10;;;5.03;;
55090;SDS011;40985;53.180;5.800;2022-09-12T15:52:57;6.25;;;5.65;;
55090;SDS011;40985;53.180;5.800;2022-09-12T15:55:25;8.45;;;6.03;;
55090;SDS011;40985;53.180;5.800;2022-09-12T15:57:53;6.43;;;5.93;;
55090;SDS011;40985;53.180;5.800;2022-09-12T16:00:19;6.53;;;5.93;;
55090;SDS011;40985;53.180;5.800;2022-09-12T16:02:48;5.80;;;5.22;;
55090;SDS011;40985;53.180;5.800;2022-09-12T16:05:24;6.07;;;5.30;;
55090;SDS011;40985;53.180;5.800;2022-09-12T16:07:51;5.85;;;5.35;;
55090;SDS011;40985;53.180;5.800;2022-09-12T16:10:19;7.63;;;6.93;;
55090;SDS011;40985;53.180;5.800;2022-09-12T16:12:47;6.85;;;6.18;;
55090;SDS011;40985;53.180;5.800;2022-09-12T16:15:15;7.32;;;6.70;;
55090;SDS011;40985;53.180;5.800;2022-09-12T16:17:45;7.03;;;6.43;;
55090;SDS011;40985;53.180;5.800;2022-09-12T16:20:11;7.80;;;7.10;;
55090;SDS011;40985;53.180;5.800;2022-09-12T16:22:37;7.03;;;6.50;;
55090;SDS011;40985;53.180;5.800;2022-09-12T16:25:03;7.70;;;6.90;;
55090;SDS011;40985;53.180;5.800;2022-09-12T16:27:30;7.18;;;6.57;;
55090;SDS011;40985;53.180;5.800;2022-09-12T16:29:56;6.28;;;5.78;;
55090;SDS011;40985;53.180;5.800;2022-09-12T16:32:21;6.68;;;6.05;;
55090;SDS011;40985;53.180;5.800;2022-09-12T16:34:47;8.45;;;7.82;;
55090;SDS011;40985;53.180;5.800;2022-09-12T16:37:14;6.70;;;6.20;;
55090;SDS011;40985;53.180;5.800;2022-09-12T16:39:39;6.93;;;6.43;;
55090;SDS011;40985;53.180;5.800;2022-09-12T16:42:05;8.48;;;6.55;;
55090;SDS011;40985;53.180;5.800;2022-09-12T16:44:31;7.40;;;6.75;;
55090;SDS011;40985;53.180;5.800;2022-09-12T16:46:56;6.97;;;6.47;;
55090;SDS011;40985;53.180;5.800;2022-09-12T16:49:22;6.35;;;5.88;;
55090;SDS011;40985;53.180;5.800;2022-09-12T16:51:47;6.90;;;6.28;;
55090;SDS011;40985;53.180;5.800;2022-09-12T16:54:14;6.80;;;6.30;;
55090;SDS011;40985;53.180;5.800;2022-09-12T16:56:40;7.05;;;6.38;;
55090;SDS011;40985;53.180;5.800;2022-09-12T16:59:06;7.05;;;6.47;;
55090;SDS011;40985;53.180;5.800;2022-09-12T17:01:33;8.05;;;7.45;;
55090;SDS011;40985;53.180;5.800;2022-09-12T17:03:59;7.57;;;7.03;;
55090;SDS011;40985;53.180;5.800;2022-09-12T17:06:26;9.35;;;6.60;;
55090;SDS011;40985;53.180;5.800;2022-09-12T17:08:53;7.72;;;7.07;;
55090;SDS011;40985;53.180;5.800;2022-09-12T17:11:21;7.85;;;7.22;;
55090;SDS011;40985;53.180;5.800;2022-09-12T17:13:49;10.65;;;7.05;;
55090;SDS011;40985;53.180;5.800;2022-09-12T17:16:17;8.15;;;7.40;;
55090;SDS011;40985;53.180;5.800;2022-09-12T17:18:43;7.72;;;7.05;;
55090;SDS011;40985;53.180;5.800;2022-09-12T17:21:10;7.40;;;6.70;;
55090;SDS011;40985;53.180;5.800;2022-09-12T17:23:36;6.93;;;6.22;;
55090;SDS011;40985;53.180;5.800;2022-09-12T17:26:02;6.93;;;6.22;;
55090;SDS011;40985;53.180;5.800;2022-09-12T17:28:28;6.85;;;6.28;;
55090;SDS011;40985;53.180;5.800;2022-09-12T17:30:58;7.45;;;6.70;;
55090;SDS011;40985;53.180;5.800;2022-09-12T17:33:25;6.78;;;6.18;;
55090;SDS011;40985;53.180;5.800;2022-09-12T17:35:51;5.95;;;5.50;;
55090;SDS011;40985;53.180;5.800;2022-09-12T17:38:17;5.72;;;5.32;;